Time;durP1;ratioP1;P1;durP2;ratioP2;P2;SDS_P1;SDS_P2;PMS_P1;PMS_P2;Temp;Humidity;BMP_temperature;BMP_pressure;BME280_temperature;BME280_humidity;BME280_pressure;Samples;Min_cycle;Max_cycle;Signal;HPM_P1;HPM_P2
2023/04/16 00:01:26;;;;;;;10.97;3.60;;;;;;;-145.18;100.00;46656.50;6182028;23;20152;-67
2023/04/16 00:03:51;;;;;;;14.90;3.50;;;;;;;-145.18;100.00;46660.41;6182579;23;20440;-67
2023/04/16 00:06:16;;;;;;;11.10;4.03;;;;;;;-145.18;100.00;46658.44;6182007;23;20021;-68
2023/04/16 00:08:42;;;;;;;21.73;3.13;;;;;;;-145.18;100.00;46654.53;6182656;23;20020;-68
2023/04/16 00:11:08;;;;;;;7.37;2.90;;;;;;;-145.18;100.00;46656.50;6182497;23;20009;-68
2023/04/16 00:13:33;;;;;;;7.87;3.67;;;;;;;-145.18;100.00;46656.50;6181956;23;20497;-67
2023/04/16 00:15:58;;;;;;;9.73;3.40;;;;;;;-145.18;100.00;46652.59;6182776;23;20013;-67
2023/04/16 00:18:24;;;;;;;9.60;3.30;;;;;;;-145.18;100.00;46650.63;6182143;23;20005;-67
2023/04/16 00:20:50;;;;;;;14.77;4.20;;;;;;;-145.18;100.00;46650.63;6182118;23;20013;-67
2023/04/16 00:23:16;;;;;;;11.17;3.87;;;;;;;-145.18;100.00;46646.72;6180974;23;20017;-68
2023/04/16 00:25:41;;;;;;;12.80;3.90;;;;;;;-145.18;100.00;46652.59;6182555;23;20322;-68
2023/04/16 00:28:07;;;;;;;11.60;3.67;;;;;;;-145.18;100.00;46646.72;6182503;23;20009;-68
2023/04/16 00:30:33;;;;;;;17.80;3.80;;;;;;;-145.18;100.00;46650.63;6181778;23;20005;-68
2023/04/16 00:32:58;;;;;;;6.07;2.80;;;;;;;-145.18;100.00;46642.81;6182049;23;20293;-68
2023/04/16 00:35:24;;;;;;;12.67;3.77;;;;;;;-145.18;100.00;46644.78;6181985;23;20017;-68
2023/04/16 00:37:49;;;;;;;8.97;3.73;;;;;;;-145.18;100.00;46642.81;6182013;23;20033;-68
2023/04/16 00:40:15;;;;;;;9.23;2.60;;;;;;;-145.18;100.00;46642.81;6181878;23;20068;-68
2023/04/16 00:42:40;;;;;;;5.03;2.27;;;;;;;-145.18;100.00;46646.72;6181801;23;20044;-68
2023/04/16 00:45:06;;;;;;;11.23;3.97;;;;;;;-145.18;100.00;46640.88;6182699;23;20040;-68
2023/04/16 00:47:32;;;;;;;7.57;3.57;;;;;;;-145.18;100.00;46642.81;6181889;23;20013;-68
2023/04/16 00:49:58;;;;;;;15.37;3.70;;;;;;;-145.18;100.00;46642.81;6182135;23;20240;-68
2023/04/16 00:52:24;;;;;;;12.13;3.50;;;;;;;-145.18;100.00;46640.88;6181579;23;20681;-68
2023/04/16 00:54:51;;;;;;;8.73;3.87;;;;;;;-145.18;100.00;46644.78;6182015;23;20477;-68
2023/04/16 00:57:16;;;;;;;16.00;4.27;;;;;;;-145.18;100.00;46642.81;6181693;23;20234;-68
2023/04/16 00:59:42;;;;;;;10.60;3.97;;;;;;;-145.18;100.00;46642.81;6182177;23;20231;-68
2023/04/16 01:02:07;;;;;;;8.60;3.20;;;;;;;-145.18;100.00;46644.78;6181761;23;20009;-68
2023/04/16 01:04:34;;;;;;;13.27;3.77;;;;;;;-145.18;100.00;46640.88;6181516;23;20454;-67
2023/04/16 01:07:00;;;;;;;13.60;5.10;;;;;;;-145.18;100.00;46640.88;6182029;23;20013;-67
2023/04/16 01:09:25;;;;;;;15.67;4.43;;;;;;;-145.18;100.00;46635.00;6181809;23;20235;-67
2023/04/16 01:11:50;;;;;;;16.97;4.90;;;;;;;-145.18;100.00;46640.88;6182173;23;20009;-67
2023/04/16 01:14:16;;;;;;;16.47;5.20;;;;;;;-145.18;100.00;46640.88;6181668;23;20020;-67
2023/04/16 01:16:41;;;;;;;13.10;4.90;;;;;;;-145.18;100.00;46636.94;6181727;23;20083;-67
2023/04/16 01:19:06;;;;;;;12.30;4.43;;;;;;;-145.18;100.00;46640.88;6182132;23;20005;-67
2023/04/16 01:21:32;;;;;;;12.47;5.00;;;;;;;-145.18;100.00;46642.81;6181501;23;20430;-67
2023/04/16 01:24:01;;;;;;;18.07;5.27;;;;;;;-145.18;100.00;46638.91;6182003;23;20084;-67
2023/04/16 01:26:26;;;;;;;14.80;5.17;;;;;;;-145.18;100.00;46638.91;6181169;23;19997;-67
2023/04/16 01:28:52;;;;;;;12.47;5.83;;;;;;;-145.18;100.00;46636.94;6182068;23;20305;-67
2023/04/16 01:31:17;;;;;;;9.77;4.60;;;;;;;-145.18;100.00;46640.88;6181675;23;20063;-67
2023/04/16 01:33:43;;;;;;;16.60;5.77;;;;;;;-145.18;100.00;46642.81;6181539;23;20036;-67
2023/04/16 01:36:08;;;;;;;12.40;6.00;;;;;;;-145.18;100.00;46638.91;6181941;23;20316;-67
2023/04/16 01:38:33;;;;;;;14.27;6.17;;;;;;;-145.18;100.00;46640.88;6181126;23;20332;-67
2023/04/16 01:40:59;;;;;;;17.40;7.17;;;;;;;-145.18;100.00;46640.88;6181915;23;20005;-67
2023/04/16 01:43:24;;;;;;;16.33;6.40;;;;;;;-145.18;100.00;46642.81;6181332;23;20440;-67
2023/04/16 01:45:51;;;;;;;14.07;6.77;;;;;;;-145.18;100.00;46642.81;6181340;23;20013;-67
2023/04/16 01:48:17;;;;;;;9.90;6.00;;;;;;;-145.18;100.00;46640.88;6181167;23;20112;-67
2023/04/16 01:50:42;;;;;;;14.47;5.80;;;;;;;-145.18;100.00;46640.88;6181606;23;20792;-66
2023/04/16 01:53:08;;;;;;;12.63;5.30;;;;;;;-145.18;100.00;46644.78;6181547;23;20013;-67
2023/04/16 01:55:34;;;;;;;11.00;5.80;;;;;;;-145.18;100.00;46640.88;6181284;23;20044;-66
2023/04/16 01:57:59;;;;;;;10.93;4.60;;;;;;;-145.18;100.00;46644.78;6181285;23;20211;-68
2023/04/16 02:03:04;;;;;;;14.93;5.87;;;;;;;-145.18;100.00;46638.91;6160893;23;20032;-68
2023/04/16 02:05:30;;;;;;;18.20;6.20;;;;;;;-145.18;100.00;46644.78;6180980;23;20238;-68
2023/04/16 02:07:55;;;;;;;15.07;5.33;;;;;;;-145.18;100.00;46640.88;6181633;23;20373;-68
2023/04/16 02:10:21;;;;;;;13.47;5.37;;;;;;;-145.18;100.00;46636.94;6181788;23;20066;-68
2023/04/16 02:12:46;;;;;;;14.97;5.67;;;;;;;-145.18;100.00;46640.88;6181501;23;20028;-68
2023/04/16 02:15:12;;;;;;;16.07;5.73;;;;;;;-145.18;100.00;46642.81;6181859;23;20013;-68
2023/04/16 02:17:37;;;;;;;13.87;5.40;;;;;;;-145.18;100.00;46640.88;6184113;23;20012;-68
2023/04/16 02:20:05;;;;;;;11.80;5.40;;;;;;;-145.18;100.00;46640.88;6183384;23;20389;-67
2023/04/16 02:22:30;;;;;;;15.13;4.37;;;;;;;-145.18;100.00;46644.78;6183440;23;20009;-68
2023/04/16 02:24:55;;;;;;;14.40;4.80;;;;;;;-145.18;100.00;46638.91;6183757;23;20288;-68
2023/04/16 02:27:21;;;;;;;14.73;5.63;;;;;;;-145.18;100.00;46646.72;6183664;23;20015;-68
2023/04/16 02:29:46;;;;;;;13.07;3.70;;;;;;;-145.18;100.00;46644.78;6183346;23;20438;-68
2023/04/16 02:32:11;;;;;;;7.93;4.03;;;;;;;-145.18;100.00;46644.78;6183435;23;20009;-68
2023/04/16 02:34:38;;;;;;;13.20;4.83;;;;;;;-145.18;100.00;46640.88;6183975;23;20235;-68
2023/04/16 02:37:04;;;;;;;9.73;5.40;;;;;;;-145.18;100.00;46640.88;6183285;23;20394;-68
2023/04/16 02:39:29;;;;;;;14.37;5.97;;;;;;;-145.18;100.00;46640.88;6183687;23;20306;-68
2023/04/16 02:41:56;;;;;;;14.40;5.47;;;;;;;-145.18;100.00;46642.81;6183192;23;20040;-68
2023/04/16 02:44:22;;;;;;;9.63;4.87;;;;;;;-145.18;100.00;46642.81;6183643;23;20013;-68
2023/04/16 02:46:47;;;;;;;10.40;5.07;;;;;;;-145.18;100.00;46644.78;6183486;23;20227;-68
2023/04/16 02:49:12;;;;;;;13.03;5.47;;;;;;;-145.18;100.00;46644.78;6183654;23;20422;-68
2023/04/16 02:51:38;;;;;;;11.47;4.40;;;;;;;-145.18;100.00;46642.81;6183910;23;20054;-68
2023/04/16 02:54:03;;;;;;;18.13;5.57;;;;;;;-145.18;100.00;46646.72;6183173;23;20013;-68
2023/04/16 02:56:29;;;;;;;11.33;5.73;;;;;;;-145.18;100.00;46640.88;6183734;23;20016;-68
2023/04/16 02:58:54;;;;;;;8.97;4.53;;;;;;;-145.18;100.00;46642.81;6182746;23;20035;-68
2023/04/16 03:01:20;;;;;;;9.03;5.13;;;;;;;-145.18;100.00;46646.72;6183243;23;20441;-68
2023/04/16 03:03:45;;;;;;;17.50;6.20;;;;;;;-145.18;100.00;46650.63;6182607;23;20013;-68
2023/04/16 03:06:10;;;;;;;15.00;6.40;;;;;;;-145.18;100.00;46646.72;6183663;23;20005;-68
2023/04/16 03:08:36;;;;;;;20.10;6.83;;;;;;;-145.18;100.00;46646.72;6182950;23;20307;-68
2023/04/16 03:11:01;;;;;;;20.60;6.53;;;;;;;-145.18;100.00;46644.78;6183079;23;20060;-68
2023/04/16 03:13:26;;;;;;;11.57;5.53;;;;;;;-145.18;100.00;46646.72;6156957;23;20013;-68
2023/04/16 03:15:52;;;;;;;21.33;7.10;;;;;;;-145.18;100.00;46642.81;6183151;23;20438;-68
2023/04/16 03:18:17;;;;;;;23.57;7.83;;;;;;;-145.18;100.00;46646.72;6183265;23;20020;-69
2023/04/16 03:20:42;;;;;;;11.87;5.83;;;;;;;-145.18;100.00;46646.72;6183684;23;20012;-68
2023/04/16 03:23:08;;;;;;;14.23;6.57;;;;;;;-145.18;100.00;46646.72;6156488;23;20103;-68
2023/04/16 03:25:33;;;;;;;23.77;8.17;;;;;;;-145.18;100.00;46650.63;6183298;23;20377;-68
2023/04/16 03:27:58;;;;;;;21.13;8.70;;;;;;;-145.18;100.00;46644.78;6181876;23;20036;-68
2023/04/16 03:30:24;;;;;;;22.37;7.67;;;;;;;-145.18;100.00;46652.59;6182940;23;20009;-68
2023/04/16 03:32:50;;;;;;;17.00;6.50;;;;;;;-145.18;100.00;46652.59;6182848;23;20013;-68
2023/04/16 03:35:16;;;;;;;15.17;7.90;;;;;;;-145.18;100.00;46650.63;6183049;23;20387;-68
2023/04/16 03:37:41;;;;;;;15.73;6.93;;;;;;;-145.18;100.00;46648.69;6182827;23;20281;-68
2023/04/16 03:40:07;;;;;;;21.50;9.30;;;;;;;-145.18;100.00;46644.78;6182809;23;20008;-68
2023/04/16 03:42:32;;;;;;;16.13;6.30;;;;;;;-145.18;100.00;46648.69;6183112;23;20089;-68
2023/04/16 03:44:58;;;;;;;22.20;6.77;;;;;;;-145.18;100.00;46648.69;6182952;23;20032;-68
2023/04/16 03:47:23;;;;;;;19.50;6.83;;;;;;;-145.18;100.00;46650.63;6156614;23;20005;-68
2023/04/16 03:49:49;;;;;;;17.43;8.37;;;;;;;-145.18;100.00;46642.81;6183088;23;20019;-68
2023/04/16 03:52:15;;;;;;;19.33;7.30;;;;;;;-145.18;100.00;46644.78;6183113;23;20012;-68
2023/04/16 03:54:40;;;;;;;20.00;8.13;;;;;;;-145.18;100.00;46646.72;6182932;23;20607;-68
2023/04/16 03:57:05;;;;;;;20.47;7.23;;;;;;;-145.18;100.00;46646.72;6182655;23;20009;-68
2023/04/16 03:59:31;;;;;;;17.67;8.73;;;;;;;-145.18;100.00;46648.69;6183177;23;20009;-68
2023/04/16 04:01:56;;;;;;;24.93;8.03;;;;;;;-145.18;100.00;46644.78;6182112;23;20067;-68
2023/04/16 04:04:21;;;;;;;18.97;9.00;;;;;;;-145.18;100.00;46646.72;6181510;23;20448;-68
2023/04/16 04:06:47;;;;;;;15.87;6.47;;;;;;;-145.18;100.00;46646.72;6182596;23;20013;-68
2023/04/16 04:09:13;;;;;;;26.17;9.57;;;;;;;-145.18;100.00;46644.78;6182832;23;20058;-68
2023/04/16 04:11:39;;;;;;;22.20;9.67;;;;;;;-145.18;100.00;46650.63;6155926;23;20028;-68
2023/04/16 04:14:04;;;;;;;19.93;9.30;;;;;;;-145.18;100.00;46650.63;6182577;23;20239;-69
2023/04/16 04:16:31;;;;;;;17.90;7.80;;;;;;;-145.18;100.00;46650.63;6182661;23;20009;-68
2023/04/16 04:18:56;;;;;;;22.80;8.10;;;;;;;-145.18;100.00;46652.59;6182002;23;20009;-68
2023/04/16 04:21:22;;;;;;;19.27;7.73;;;;;;;-145.18;100.00;46642.81;6182782;23;20246;-68
2023/04/16 04:23:47;;;;;;;15.10;7.53;;;;;;;-145.18;100.00;46648.69;6182244;23;20067;-68
2023/04/16 04:26:12;;;;;;;18.83;7.40;;;;;;;-145.18;100.00;46646.72;6182433;23;20039;-68
2023/04/16 04:28:38;;;;;;;23.00;7.87;;;;;;;-145.18;100.00;46646.72;6181878;23;20102;-68
2023/04/16 04:31:03;;;;;;;18.23;7.30;;;;;;;-145.18;100.00;46646.72;6181580;23;20012;-68
2023/04/16 04:33:28;;;;;;;13.53;7.17;;;;;;;-145.18;100.00;46642.81;6182278;23;20386;-68
2023/04/16 04:35:54;;;;;;;21.57;7.80;;;;;;;-145.18;100.00;46648.69;6182069;23;20080;-68
2023/04/16 04:38:23;;;;;;;25.93;8.37;;;;;;;-145.18;100.00;46642.81;6181703;23;20092;-68
2023/04/16 04:40:49;;;;;;;28.93;7.20;;;;;;;-145.18;100.00;46640.88;6180266;23;20009;-68
2023/04/16 04:43:15;;;;;;;15.07;6.50;;;;;;;-145.18;100.00;46644.78;6179192;23;20262;-68
2023/04/16 04:45:40;;;;;;;18.50;8.47;;;;;;;-145.18;100.00;46646.72;6182395;23;20017;-68
2023/04/16 04:48:06;;;;;;;19.33;8.07;;;;;;;-145.18;100.00;46642.81;6181444;23;20013;-68
2023/04/16 04:50:31;;;;;;;17.73;8.00;;;;;;;-145.18;100.00;46642.81;6179728;23;20005;-68
2023/04/16 04:52:57;;;;;;;14.93;5.83;;;;;;;-145.18;100.00;46652.59;6181368;23;20342;-69
2023/04/16 04:55:22;;;;;;;20.77;8.43;;;;;;;-145.18;100.00;46648.69;6179739;23;20013;-68
2023/04/16 04:57:48;;;;;;;14.43;6.90;;;;;;;-145.18;100.00;46640.88;6181397;23;20024;-69
2023/04/16 05:00:14;;;;;;;11.23;5.47;;;;;;;-145.18;100.00;46642.81;6182160;23;20004;-69
2023/04/16 05:02:39;;;;;;;15.47;7.37;;;;;;;-145.18;100.00;46646.72;6181378;23;20321;-69
2023/04/16 05:05:05;;;;;;;22.30;7.50;;;;;;;-145.18;100.00;46644.78;6182081;23;20013;-68
2023/04/16 05:07:31;;;;;;;19.70;8.67;;;;;;;-145.18;100.00;46642.81;6181994;23;20025;-69
2023/04/16 05:09:57;;;;;;;17.63;7.93;;;;;;;-145.18;100.00;46644.78;6181893;23;20286;-68
2023/04/16 05:12:22;;;;;;;17.87;9.10;;;;;;;-145.18;100.00;46638.91;6181918;23;20400;-69
2023/04/16 05:14:47;;;;;;;19.07;8.60;;;;;;;-145.18;100.00;46642.81;6182010;23;20005;-68
2023/04/16 05:17:13;;;;;;;22.33;7.07;;;;;;;-145.18;100.00;46644.78;6182039;23;20084;-69
2023/04/16 05:19:38;;;;;;;32.63;8.40;;;;;;;-145.18;100.00;46644.78;6181953;23;20013;-69
2023/04/16 05:22:03;;;;;;;21.07;8.87;;;;;;;-145.18;100.00;46644.78;6181475;23;20024;-69
2023/04/16 05:24:29;;;;;;;27.83;11.40;;;;;;;-145.18;100.00;46642.81;6181772;23;20009;-69
2023/04/16 05:26:56;;;;;;;22.73;9.90;;;;;;;-145.18;100.00;46640.88;6180354;23;20005;-68
2023/04/16 05:29:21;;;;;;;27.97;8.97;;;;;;;-145.18;100.00;46646.72;6181586;23;20366;-69
2023/04/16 05:31:47;;;;;;;31.00;9.63;;;;;;;-145.18;100.00;46640.88;6181263;23;20235;-69
2023/04/16 05:34:12;;;;;;;24.87;9.70;;;;;;;-145.18;100.00;46635.00;6181712;23;20009;-69
2023/04/16 05:36:37;;;;;;;21.20;9.23;;;;;;;-145.18;100.00;46642.81;6182148;23;20017;-69
2023/04/16 05:39:03;;;;;;;19.87;9.73;;;;;;;-145.18;100.00;46646.72;6180623;23;20433;-69
2023/04/16 05:41:28;;;;;;;25.53;11.13;;;;;;;-145.18;100.00;46638.91;6180665;23;20055;-69
2023/04/16 05:43:53;;;;;;;26.47;11.43;;;;;;;-145.18;100.00;46640.88;6181576;23;20005;-69
2023/04/16 05:46:19;;;;;;;24.27;10.13;;;;;;;-145.18;100.00;46644.78;6182239;23;20393;-70
2023/04/16 05:48:44;;;;;;;28.80;12.17;;;;;;;-145.18;100.00;46640.88;6181859;23;20385;-69
2023/04/16 05:51:10;;;;;;;20.33;10.80;;;;;;;-145.18;100.00;46638.91;6182268;23;20017;-69
2023/04/16 05:53:36;;;;;;;30.77;9.63;;;;;;;-145.18;100.00;46644.78;6182266;23;20354;-69
2023/04/16 05:56:01;;;;;;;23.60;11.43;;;;;;;-145.18;100.00;46642.81;6181955;23;20001;-69
2023/04/16 05:58:26;;;;;;;22.17;10.57;;;;;;;-145.18;100.00;46640.88;6181952;23;20020;-69
2023/04/16 06:00:52;;;;;;;18.67;9.60;;;;;;;-145.18;100.00;46644.78;6181917;23;20041;-69
2023/04/16 06:03:17;;;;;;;29.90;10.90;;;;;;;-145.18;100.00;46642.81;6181296;23;20093;-69
2023/04/16 06:05:43;;;;;;;29.60;9.80;;;;;;;-145.18;100.00;46640.88;6182217;23;20017;-69
2023/04/16 06:08:08;;;;;;;23.83;10.87;;;;;;;-145.18;100.00;46640.88;6181745;23;20017;-69
2023/04/16 06:10:34;;;;;;;27.13;10.77;;;;;;;-145.18;100.00;46640.88;6181642;23;20005;-69
2023/04/16 06:12:59;;;;;;;25.83;11.37;;;;;;;-145.18;100.00;46644.78;6177571;23;20005;-69
2023/04/16 06:15:25;;;;;;;23.43;10.47;;;;;;;-145.18;100.00;46638.91;6180350;23;20020;-69
2023/04/16 06:17:50;;;;;;;35.97;11.93;;;;;;;-145.18;100.00;46638.91;6181501;23;20024;-69
2023/04/16 06:20:15;;;;;;;35.37;10.93;;;;;;;-145.18;100.00;46644.78;6181728;23;20013;-69
2023/04/16 06:22:41;;;;;;;27.60;9.13;;;;;;;-145.18;100.00;46640.88;6181258;23;20009;-69
2023/04/16 06:25:07;;;;;;;24.20;10.23;;;;;;;-145.18;100.00;46644.78;6181742;23;20019;-68
2023/04/16 06:27:32;;;;;;;20.97;8.27;;;;;;;-145.18;100.00;46640.88;6181090;23;20498;-69
2023/04/16 06:29:57;;;;;;;25.13;10.37;;;;;;;-145.18;100.00;46642.81;6181540;23;20096;-69
2023/04/16 06:32:23;;;;;;;25.57;9.67;;;;;;;-145.18;100.00;46640.88;6181877;23;20069;-69
2023/04/16 06:34:49;;;;;;;18.20;8.80;;;;;;;-145.18;100.00;46640.88;6181300;23;20009;-69
2023/04/16 06:37:15;;;;;;;22.33;8.87;;;;;;;-145.18;100.00;46642.81;6181975;23;20227;-68
2023/04/16 06:39:40;;;;;;;24.07;10.27;;;;;;;-145.18;100.00;46638.91;6151974;23;20034;-68
2023/04/16 06:42:05;;;;;;;24.33;10.13;;;;;;;-145.18;100.00;46640.88;6180692;23;20013;-68
2023/04/16 06:44:31;;;;;;;26.27;11.80;;;;;;;-145.18;100.00;46640.88;6180137;23;20495;-68
2023/04/16 06:46:56;;;;;;;26.60;11.27;;;;;;;-145.18;100.00;46638.91;6181314;23;20009;-68
2023/04/16 06:49:22;;;;;;;32.50;11.63;;;;;;;-145.18;100.00;46644.78;6181249;23;20084;-68
2023/04/16 06:51:47;;;;;;;32.83;11.90;;;;;;;-145.18;100.00;46640.88;6181605;23;20005;-68
2023/04/16 06:54:12;;;;;;;23.07;10.93;;;;;;;-145.18;100.00;46642.81;6155409;23;20361;-68
2023/04/16 06:56:38;;;;;;;26.77;12.60;;;;;;;-145.18;100.00;46636.94;6181824;23;20009;-68
2023/04/16 06:59:03;;;;;;;30.10;12.93;;;;;;;-145.18;100.00;46644.78;6181509;23;20346;-68
2023/04/16 07:01:30;;;;;;;36.47;13.20;;;;;;;-145.18;100.00;46644.78;6181731;23;20013;-68
2023/04/16 07:03:56;;;;;;;25.97;10.90;;;;;;;-145.18;100.00;46646.72;6183157;23;20009;-68
2023/04/16 07:06:21;;;;;;;21.13;9.50;;;;;;;-145.18;100.00;46642.81;6183230;23;20245;-68
2023/04/16 07:08:47;;;;;;;27.67;11.90;;;;;;;-145.18;100.00;46644.78;6175195;23;20226;-68
2023/04/16 07:11:12;;;;;;;23.87;12.30;;;;;;;-145.18;100.00;46642.81;6183521;23;20020;-69
2023/04/16 07:13:38;;;;;;;33.93;11.67;;;;;;;-145.18;100.00;46642.81;6183114;23;20017;-69
2023/04/16 07:16:03;;;;;;;34.50;11.63;;;;;;;-145.18;100.00;46644.78;6175966;23;20009;-69
2023/04/16 07:18:29;;;;;;;33.67;10.40;;;;;;;-145.18;100.00;46644.78;6182651;23;20005;-68
2023/04/16 07:20:54;;;;;;;29.40;11.23;;;;;;;-145.18;100.00;46642.81;6183066;23;20029;-68
2023/04/16 07:23:19;;;;;;;28.17;11.50;;;;;;;-145.18;100.00;46640.88;6182932;23;20315;-68
2023/04/16 07:25:45;;;;;;;26.03;10.57;;;;;;;-145.18;100.00;46638.91;6155728;23;20032;-68
2023/04/16 07:28:10;;;;;;;38.47;11.73;;;;;;;-145.18;100.00;46640.88;6182582;23;20028;-68
2023/04/16 07:30:35;;;;;;;30.47;11.13;;;;;;;-145.18;100.00;46642.81;6182970;23;20778;-68
2023/04/16 07:33:04;;;;;;;19.00;7.80;;;;;;;-145.18;100.00;46646.72;6181730;23;20020;-68
2023/04/16 07:35:30;;;;;;;24.33;10.27;;;;;;;-145.18;100.00;46646.72;6175682;23;20464;-69
2023/04/16 07:37:56;;;;;;;31.93;10.60;;;;;;;-145.18;100.00;46642.81;6182312;23;20234;-68
2023/04/16 07:40:23;;;;;;;28.10;11.73;;;;;;;-145.18;100.00;46642.81;6157560;23;20792;-68
2023/04/16 07:42:48;;;;;;;25.27;11.10;;;;;;;-145.18;100.00;46642.81;6152506;23;20013;-68
2023/04/16 07:45:13;;;;;;;24.40;10.47;;;;;;;-145.18;100.00;46648.69;6153183;23;20246;-68
2023/04/16 07:47:39;;;;;;;25.00;10.73;;;;;;;-145.18;100.00;46644.78;6152714;23;20089;-68
2023/04/16 07:50:05;;;;;;;27.13;10.87;;;;;;;-145.18;100.00;46644.78;6152921;23;20005;-68
2023/04/16 07:52:31;;;;;;;23.37;9.10;;;;;;;-145.18;100.00;46648.69;6152673;23;20006;-68
2023/04/16 07:54:56;;;;;;;24.90;11.70;;;;;;;-145.18;100.00;46648.69;6151618;23;20242;-68
2023/04/16 07:57:21;;;;;;;16.90;8.33;;;;;;;-145.18;100.00;46644.78;6152449;23;20013;-68
2023/04/16 07:59:47;;;;;;;26.60;11.43;;;;;;;-145.18;100.00;46652.59;6152846;23;20013;-68
2023/04/16 08:02:14;;;;;;;23.37;10.47;;;;;;;-145.18;100.00;46648.69;6126862;23;20017;-68
2023/04/16 08:04:41;;;;;;;22.47;8.43;;;;;;;-145.18;100.00;46652.59;6126354;23;20490;-68
2023/04/16 08:07:06;;;;;;;22.33;9.53;;;;;;;-145.18;100.00;46646.72;6151520;23;20227;-68
2023/04/16 08:09:32;;;;;;;28.37;11.40;;;;;;;-145.18;100.00;46646.72;6152569;23;20285;-68
2023/04/16 08:11:59;;;;;;;26.13;11.03;;;;;;;-145.18;100.00;46648.69;6150983;23;20067;-68
2023/04/16 08:14:25;;;;;;;20.37;9.40;;;;;;;-145.18;100.00;46648.69;6151674;23;20065;-68
2023/04/16 08:16:51;;;;;;;27.47;10.77;;;;;;;-145.18;100.00;46650.63;6151834;23;20316;-68
2023/04/16 08:19:16;;;;;;;22.43;8.30;;;;;;;-145.18;100.00;46646.72;6152573;23;20308;-68
2023/04/16 08:21:42;;;;;;;22.93;10.07;;;;;;;-145.18;100.00;46652.59;6152410;23;20119;-68
2023/04/16 08:24:07;;;;;;;25.00;9.57;;;;;;;-145.18;100.00;46644.78;6151474;23;20466;-68
2023/04/16 08:26:33;;;;;;;23.07;11.47;;;;;;;-145.18;100.00;46646.72;6152073;23;20033;-68
2023/04/16 08:28:58;;;;;;;26.30;11.93;;;;;;;-145.18;100.00;46646.72;6152038;23;20020;-69
2023/04/16 08:31:24;;;;;;;34.43;11.57;;;;;;;-145.18;100.00;46652.59;6152588;23;20067;-68
2023/04/16 08:33:49;;;;;;;27.93;10.57;;;;;;;-145.18;100.00;46648.69;6125216;23;20061;-68
2023/04/16 08:36:14;;;;;;;24.10;11.30;;;;;;;-145.18;100.00;46648.69;6151945;23;20009;-68
2023/04/16 08:38:40;;;;;;;31.00;11.97;;;;;;;-145.18;100.00;46652.59;6151630;23;20021;-68
2023/04/16 08:41:10;;;;;;;29.97;10.57;;;;;;;-145.18;100.00;46648.69;6152025;23;20013;-68
2023/04/16 08:43:38;;;;;;;27.50;10.87;;;;;;;-145.18;100.00;46646.72;6152223;23;20006;-68
2023/04/16 08:46:04;;;;;;;26.73;11.37;;;;;;;-145.18;100.00;46646.72;6152178;23;20235;-68
2023/04/16 08:48:33;;;;;;;23.00;10.87;;;;;;;-145.18;100.00;46648.69;6126373;23;20231;-68
2023/04/16 08:51:00;;;;;;;25.83;10.83;;;;;;;-145.18;100.00;46654.53;6149822;23;20236;-68
2023/04/16 08:53:36;;;;;;;29.93;10.97;;;;;;;-145.18;100.00;46650.63;6152068;23;20251;-68
2023/04/16 08:56:04;;;;;;;24.15;9.10;;;;;;;-145.18;100.00;46648.69;6151826;23;20699;-68
2023/04/16 08:58:33;;;;;;;30.00;11.63;;;;;;;-145.18;100.00;46646.72;6152624;23;20006;-68
2023/04/16 09:01:01;;;;;;;31.40;11.00;;;;;;;-145.18;100.00;46650.63;6151836;23;20240;-68
2023/04/16 09:03:28;;;;;;;21.67;9.67;;;;;;;-145.18;100.00;46648.69;6151912;23;20294;-68
2023/04/16 09:05:54;;;;;;;23.37;10.47;;;;;;;-145.18;100.00;46650.63;6151962;23;20243;-68
2023/04/16 09:08:20;;;;;;;28.03;11.00;;;;;;;-145.18;100.00;46650.63;6149423;23;20850;-68
2023/04/16 09:10:46;;;;;;;23.70;11.23;;;;;;;-145.18;100.00;46648.69;6101758;23;20356;-68
2023/04/16 09:13:13;;;;;;;18.57;9.50;;;;;;;-145.18;100.00;46652.59;6151741;23;20013;-68
2023/04/16 09:15:40;;;;;;;27.13;10.93;;;;;;;-145.18;100.00;46650.63;6152082;23;20392;-68
2023/04/16 09:18:05;;;;;;;22.73;10.77;;;;;;;-145.18;100.00;46650.63;6151976;23;20612;-68
2023/04/16 09:20:30;;;;;;;27.30;9.67;;;;;;;-145.18;100.00;46648.69;6152215;23;20235;-68
2023/04/16 09:22:56;;;;;;;24.13;9.83;;;;;;;-145.18;100.00;46648.69;6151879;23;20048;-68
2023/04/16 09:25:22;;;;;;;24.80;11.17;;;;;;;-145.18;100.00;46650.63;6151703;23;20006;-68
2023/04/16 09:27:50;;;;;;;22.73;10.67;;;;;;;-145.18;100.00;46648.69;6152201;23;20009;-68
2023/04/16 09:30:22;;;;;;;20.13;10.53;;;;;;;-145.18;100.00;46648.69;6152088;23;20006;-68
2023/04/16 09:32:49;;;;;;;21.53;11.03;;;;;;;-145.18;100.00;46652.59;6152563;23;20240;-68
2023/04/16 09:35:15;;;;;;;22.63;9.27;;;;;;;-145.18;100.00;46654.53;6151996;23;20236;-68
2023/04/16 09:37:41;;;;;;;24.80;11.40;;;;;;;-145.18;100.00;46656.50;6152333;23;20280;-68
2023/04/16 09:40:07;;;;;;;21.47;9.70;;;;;;;-145.18;100.00;46656.50;6151118;23;20255;-68
2023/04/16 09:42:35;;;;;;;21.10;9.30;;;;;;;-145.18;100.00;46652.59;6125984;23;20124;-69
2023/04/16 09:45:00;;;;;;;25.77;10.40;;;;;;;-145.18;100.00;46654.53;6151910;23;20006;-68
2023/04/16 09:47:38;;;;;;;24.27;10.37;;;;;;;-145.18;100.00;46654.53;6152219;23;20806;-68
2023/04/16 09:50:04;;;;;;;25.20;11.43;;;;;;;-145.18;100.00;46654.53;6151655;23;20510;-68
2023/04/16 09:52:30;;;;;;;22.90;9.57;;;;;;;-145.18;100.00;46654.53;6151595;23;20267;-68
2023/04/16 09:54:55;;;;;;;24.40;11.00;;;;;;;-145.18;100.00;46652.59;6151599;23;20020;-68
2023/04/16 09:57:23;;;;;;;25.17;10.90;;;;;;;-145.18;100.00;46652.59;6151987;23;20017;-68
2023/04/16 09:59:53;;;;;;;27.03;11.23;;;;;;;-145.18;100.00;46658.44;6151950;23;20011;-68
2023/04/16 10:02:19;;;;;;;31.23;11.97;;;;;;;-145.18;100.00;46656.50;6151878;23;20744;-68
2023/04/16 10:04:49;;;;;;;31.07;12.03;;;;;;;-145.18;100.00;46656.50;6151163;23;20282;-68
2023/04/16 10:07:15;;;;;;;27.37;11.80;;;;;;;-145.18;100.00;46658.44;6152221;23;20230;-69
2023/04/16 10:09:41;;;;;;;25.10;10.67;;;;;;;-145.18;100.00;46660.41;6151465;23;20277;-68
2023/04/16 10:12:07;;;;;;;27.07;12.00;;;;;;;-145.18;100.00;46660.41;6151684;23;20001;-68
2023/04/16 10:14:32;;;;;;;26.30;9.83;;;;;;;-145.18;100.00;46656.50;6150856;23;20048;-68
2023/04/16 10:16:58;;;;;;;20.10;11.03;;;;;;;-145.18;100.00;46656.50;6150835;23;20677;-68
2023/04/16 10:19:25;;;;;;;28.60;10.80;;;;;;;-145.18;100.00;46656.50;6122636;23;20543;-68
2023/04/16 10:21:51;;;;;;;22.80;11.10;;;;;;;-145.18;100.00;46660.41;6150296;23;20024;-69
2023/04/16 10:24:17;;;;;;;32.20;11.87;;;;;;;-145.18;100.00;46652.59;6124481;23;20573;-68
2023/04/16 10:26:43;;;;;;;22.10;11.33;;;;;;;-145.18;100.00;46654.53;6150183;23;20013;-68
2023/04/16 10:29:10;;;;;;;30.43;11.93;;;;;;;-145.18;100.00;46656.50;6150639;23;20012;-68
2023/04/16 10:31:37;;;;;;;24.03;10.90;;;;;;;-145.18;100.00;46662.34;6152052;23;20234;-68
2023/04/16 10:34:04;;;;;;;25.83;10.70;;;;;;;-145.18;100.00;46654.53;6151502;23;20235;-68
2023/04/16 10:36:29;;;;;;;22.40;10.13;;;;;;;-145.18;100.00;46654.53;6152409;23;20307;-68
2023/04/16 10:38:59;;;;;;;27.30;9.73;;;;;;;-145.18;100.00;46660.41;6153299;23;20267;-68
2023/04/16 10:41:26;;;;;;;23.93;10.83;;;;;;;-145.18;100.00;46658.44;6154388;23;19997;-68
2023/04/16 10:43:52;;;;;;;21.57;11.03;;;;;;;-145.18;100.00;46662.34;6153654;23;20290;-68
2023/04/16 10:46:21;;;;;;;25.00;11.63;;;;;;;-145.18;100.00;46658.44;6153861;23;20235;-68
2023/04/16 10:48:48;;;;;;;23.90;9.90;;;;;;;-145.18;100.00;46656.50;6153880;23;20310;-68
2023/04/16 10:51:32;;;;;;;30.10;11.83;;;;;;;-145.18;100.00;46666.25;6153822;23;20231;-68
2023/04/16 10:54:07;;;;;;;22.23;10.87;;;;;;;-145.18;100.00;46660.41;6153260;23;20685;-68
2023/04/16 10:56:35;;;;;;;22.02;9.95;;;;;;;-145.18;100.00;46654.53;6153851;23;20310;-68